Time;durP1;ratioP1;P1;durP2;ratioP2;P2;SDS_P1;SDS_P2;PMS_P1;PMS_P2;Temp;Humidity;BMP_temperature;BMP_pressure;BME280_temperature;BME280_humidity;BME280_pressure;Samples;Min_cycle;Max_cycle;Signal;HPM_P1;HPM_P2
2021/05/21 00:01:30;;;;;;;;;;;22.60;41.00;;;;;;5033377;28;75101;-63
2021/05/21 00:03:56;;;;;;;;;;;22.60;41.10;;;;;;5033776;28;74402;-64
2021/05/21 00:06:21;;;;;;;;;;;22.50;41.20;;;;;;5033576;28;75142;-64
2021/05/21 00:08:47;;;;;;;;;;;22.40;41.40;;;;;;5033580;28;75227;-63
2021/05/21 00:11:13;;;;;;;;;;;22.40;41.50;;;;;;5030773;28;76404;-71
2021/05/21 00:13:39;;;;;;;;;;;22.40;41.50;;;;;;5031976;28;77335;-66
2021/05/21 00:16:04;;;;;;;;;;;22.40;41.40;;;;;;5033458;28;75103;-69
2021/05/21 00:18:30;;;;;;;;;;;22.40;41.40;;;;;;5031827;28;76337;-71
2021/05/21 00:20:55;;;;;;;;;;;22.40;41.40;;;;;;5033031;28;75150;-66
2021/05/21 00:23:21;;;;;;;;;;;22.40;41.50;;;;;;5031849;28;77180;-64
2021/05/21 00:25:47;;;;;;;;;;;22.30;41.80;;;;;;5033863;28;74444;-64
2021/05/21 00:28:12;;;;;;;;;;;22.30;41.90;;;;;;5033075;28;75289;-64
2021/05/21 00:30:38;;;;;;;;;;;22.30;42.10;;;;;;5033019;28;76209;-72
2021/05/21 00:33:03;;;;;;;;;;;22.20;42.10;;;;;;5031604;28;78352;-72
2021/05/21 00:35:29;;;;;;;;;;;22.20;42.30;;;;;;5031486;28;77813;-69
2021/05/21 00:37:54;;;;;;;;;;;22.10;42.60;;;;;;5031751;28;77592;-68
2021/05/21 00:40:23;;;;;;;;;;;22.10;42.60;;;;;;5033288;28;75134;-72
2021/05/21 00:42:49;;;;;;;;;;;22.00;42.70;;;;;;5032937;28;75260;-67
2021/05/21 00:45:14;;;;;;;;;;;22.00;42.70;;;;;;5032782;28;75909;-71
2021/05/21 00:47:41;;;;;;;;;;;21.90;43.00;;;;;;5033075;28;76348;-66
2021/05/21 00:50:07;;;;;;;;;;;21.90;43.00;;;;;;5032928;28;75344;-73
2021/05/21 00:52:34;;;;;;;;;;;21.90;43.10;;;;;;5031003;28;78607;-74
2021/05/21 00:55:00;;;;;;;;;;;21.90;43.20;;;;;;5033125;28;75152;-75
2021/05/21 00:57:26;;;;;;;;;;;21.90;43.30;;;;;;5033065;28;74515;-73
2021/05/21 00:59:51;;;;;;;;;;;21.80;43.50;;;;;;5033343;28;74398;-71
2021/05/21 01:02:18;;;;;;;;;;;21.70;43.50;;;;;;5031286;28;78166;-67
2021/05/21 01:04:44;;;;;;;;;;;21.70;43.60;;;;;;5030970;28;78076;-65
2021/05/21 01:07:09;;;;;;;;;;;21.70;43.70;;;;;;5032776;28;75519;-67
2021/05/21 01:09:35;;;;;;;;;;;21.80;43.70;;;;;;5030858;28;78978;-65
2021/05/21 01:12:01;;;;;;;;;;;21.70;43.50;;;;;;5032273;28;75117;-65
2021/05/21 01:14:27;;;;;;;;;;;21.70;43.60;;;;;;5032535;28;75166;-64
2021/05/21 01:16:52;;;;;;;;;;;21.70;43.50;;;;;;5033040;28;75402;-67
2021/05/21 01:19:18;;;;;;;;;;;21.70;43.80;;;;;;5032431;28;75396;-71
2021/05/21 01:21:44;;;;;;;;;;;21.70;43.90;;;;;;5032584;28;75042;-70
2021/05/21 01:24:10;;;;;;;;;;;21.70;44.00;;;;;;5032225;27;75227;-73
2021/05/21 01:26:36;;;;;;;;;;;21.70;43.90;;;;;;5042855;28;77465;-73
2021/05/21 01:29:03;;;;;;;;;;;21.60;44.00;;;;;;5038279;28;75183;-72
2021/05/21 01:31:29;;;;;;;;;;;21.60;44.10;;;;;;5035427;28;74777;-74
2021/05/21 01:33:55;;;;;;;;;;;21.60;44.10;;;;;;5032459;28;75233;-73
2021/05/21 01:36:21;;;;;;;;;;;21.60;44.10;;;;;;5030654;28;76742;-73
2021/05/21 01:39:00;;;;;;;;;;;21.60;44.10;;;;;;5032263;28;74429;-73
2021/05/21 01:41:28;;;;;;;;;;;21.50;44.00;;;;;;5032067;28;75976;-73
2021/05/21 01:43:55;;;;;;;;;;;21.40;44.20;;;;;;5032325;28;75202;-75
2021/05/21 01:46:20;;;;;;;;;;;21.40;44.40;;;;;;5031344;28;77085;-67
2021/05/21 01:48:46;;;;;;;;;;;21.40;44.40;;;;;;5030212;28;77980;-65
2021/05/21 01:51:13;;;;;;;;;;;21.40;44.60;;;;;;5032256;28;74447;-68
2021/05/21 01:53:39;;;;;;;;;;;21.40;44.50;;;;;;5032053;28;75240;-68
2021/05/21 01:56:05;;;;;;;;;;;21.40;44.80;;;;;;5031915;28;75061;-69
2021/05/21 01:58:31;;;;;;;;;;;21.40;44.90;;;;;;5031965;28;75971;-65
2021/05/21 02:00:57;;;;;;;;;;;21.30;45.00;;;;;;5030298;28;78067;-68
2021/05/21 02:03:23;;;;;;;;;;;21.30;44.90;;;;;;5031867;28;76168;-69
2021/05/21 02:05:48;;;;;;;;;;;21.20;45.10;;;;;;5030292;28;75516;-71
2021/05/21 02:08:14;;;;;;;;;;;21.20;45.50;;;;;;5031102;28;77048;-66
2021/05/21 02:10:40;;;;;;;;;;;21.10;45.60;;;;;;5031685;28;74377;-67
2021/05/21 02:13:05;;;;;;;;;;;21.10;45.70;;;;;;5031597;28;75539;-66
2021/05/21 02:15:31;;;;;;;;;;;21.00;45.80;;;;;;5030414;28;78184;-74
2021/05/21 02:17:57;;;;;;;;;;;21.00;45.80;;;;;;5031508;28;74493;-67
2021/05/21 02:20:22;;;;;;;;;;;20.90;45.90;;;;;;5031541;28;75111;-65
2021/05/21 02:22:48;;;;;;;;;;;20.90;46.10;;;;;;5031995;28;74924;-65
2021/05/21 02:25:16;;;;;;;;;;;20.90;46.10;;;;;;5031567;28;75565;-68
2021/05/21 02:27:42;;;;;;;;;;;20.90;46.20;;;;;;5031820;28;75131;-70
2021/05/21 02:30:09;;;;;;;;;;;20.90;46.30;;;;;;5030001;28;78269;-65
2021/05/21 02:32:35;;;;;;;;;;;20.90;46.20;;;;;;5030035;28;77743;-66
2021/05/21 02:35:01;;;;;;;;;;;20.90;45.90;;;;;;5030431;28;77541;-66
2021/05/21 02:37:26;;;;;;;;;;;20.90;45.90;;;;;;5035376;28;74531;-66
2021/05/21 02:39:52;;;;;;;;;;;20.90;45.90;;;;;;5035931;27;77400;-66
2021/05/21 02:42:18;;;;;;;;;;;20.90;45.60;;;;;;5040848;28;75662;-66
2021/05/21 02:44:43;;;;;;;;;;;20.90;45.80;;;;;;5050938;28;75150;-66
2021/05/21 02:47:09;;;;;;;;;;;20.90;45.80;;;;;;5052575;28;75135;-70
2021/05/21 02:49:35;;;;;;;;;;;20.80;45.90;;;;;;5054858;28;75064;-67
2021/05/21 02:52:00;;;;;;;;;;;20.80;46.10;;;;;;5053696;28;77392;-69
2021/05/21 02:54:26;;;;;;;;;;;20.80;46.30;;;;;;5053148;28;75961;-68
2021/05/21 02:56:51;;;;;;;;;;;20.70;46.40;;;;;;5053586;28;76538;-70
2021/05/21 02:59:17;;;;;;;;;;;20.70;45.80;;;;;;5054361;28;75939;-66
2021/05/21 03:01:43;;;;;;;;;;;20.70;45.60;;;;;;5054974;28;74471;-68
2021/05/21 03:04:09;;;;;;;;;;;20.70;45.70;;;;;;5054649;28;75082;-69
2021/05/21 03:06:34;;;;;;;;;;;20.70;45.50;;;;;;5054509;28;76329;-72
2021/05/21 03:09:00;;;;;;;;;;;20.70;45.30;;;;;;5087306;27;75614;-70
2021/05/21 03:11:26;;;;;;;;;;;20.70;45.10;;;;;;5054780;28;74604;-70
2021/05/21 03:13:51;;;;;;;;;;;20.70;44.70;;;;;;5053586;28;75814;-70
2021/05/21 03:16:17;;;;;;;;;;;20.70;44.80;;;;;;5054393;28;75375;-70
2021/05/21 03:18:43;;;;;;;;;;;20.70;44.60;;;;;;5052709;28;77808;-69
2021/05/21 03:21:08;;;;;;;;;;;20.60;44.50;;;;;;5054485;28;75820;-69
2021/05/21 03:23:34;;;;;;;;;;;20.60;44.60;;;;;;5055094;28;75142;-74
2021/05/21 03:26:00;;;;;;;;;;;20.50;44.60;;;;;;5052766;28;77097;-72
2021/05/21 03:28:25;;;;;;;;;;;20.50;44.70;;;;;;5052525;28;77099;-66
2021/05/21 03:30:51;;;;;;;;;;;20.40;44.70;;;;;;5054883;28;74373;-65
2021/05/21 03:33:17;;;;;;;;;;;20.40;44.80;;;;;;5052381;28;76337;-67
2021/05/21 03:35:42;;;;;;;;;;;20.30;45.00;;;;;;5054288;28;74504;-66
2021/05/21 03:38:08;;;;;;;;;;;20.30;45.20;;;;;;5052207;28;77362;-65
2021/05/21 03:40:35;;;;;;;;;;;20.20;45.30;;;;;;5052471;28;75787;-67
2021/05/21 03:43:00;;;;;;;;;;;20.10;45.40;;;;;;5052647;28;76852;-73
2021/05/21 03:45:26;;;;;;;;;;;20.00;45.60;;;;;;5052153;28;77152;-75
2021/05/21 03:47:52;;;;;;;;;;;19.90;45.80;;;;;;5054086;27;75192;-73
2021/05/21 03:50:20;;;;;;;;;;;19.90;45.90;;;;;;5053812;28;75792;-74
2021/05/21 03:52:46;;;;;;;;;;;19.90;46.00;;;;;;5052561;28;74517;-65
2021/05/21 03:55:12;;;;;;;;;;;19.90;46.20;;;;;;5053971;28;74621;-66
2021/05/21 03:57:38;;;;;;;;;;;19.80;46.30;;;;;;5086439;27;76383;-67
2021/05/21 04:00:05;;;;;;;;;;;19.70;46.50;;;;;;5054002;28;75274;-63
2021/05/21 04:02:31;;;;;;;;;;;19.70;46.60;;;;;;5053821;28;75228;-71
2021/05/21 04:04:57;;;;;;;;;;;19.70;46.70;;;;;;5053760;28;75120;-65
2021/05/21 04:07:22;;;;;;;;;;;19.60;46.80;;;;;;5053993;28;75117;-65
2021/05/21 04:09:48;;;;;;;;;;;19.60;46.90;;;;;;5048830;27;75036;-64
2021/05/21 04:12:13;;;;;;;;;;;19.50;47.10;;;;;;5043779;28;74623;-67
2021/05/21 04:14:39;;;;;;;;;;;19.40;47.20;;;;;;5048019;28;77188;-64
2021/05/21 04:17:05;;;;;;;;;;;19.40;47.50;;;;;;5031964;28;75756;-65
2021/05/21 04:19:30;;;;;;;;;;;19.40;47.50;;;;;;5032819;28;74559;-65
2021/05/21 04:21:56;;;;;;;;;;;19.30;47.50;;;;;;5038323;28;78423;-68
2021/05/21 04:24:21;;;;;;;;;;;19.40;47.70;;;;;;5052070;28;77977;-65
2021/05/21 04:26:47;;;;;;;;;;;19.40;47.90;;;;;;5051914;28;75422;-66
2021/05/21 04:29:13;;;;;;;;;;;19.40;48.20;;;;;;5053705;28;75073;-68
2021/05/21 04:31:38;;;;;;;;;;;19.40;48.40;;;;;;5051723;28;75969;-66
2021/05/21 04:34:04;;;;;;;;;;;19.40;48.50;;;;;;5053237;28;75566;-67
2021/05/21 04:36:30;;;;;;;;;;;19.30;48.70;;;;;;5085301;27;75530;-65
2021/05/21 04:38:55;;;;;;;;;;;19.20;49.10;;;;;;5053510;28;74410;-65
2021/05/21 04:41:21;;;;;;;;;;;19.20;49.30;;;;;;5051392;28;77329;-71
2021/05/21 04:43:46;;;;;;;;;;;19.10;49.80;;;;;;5053338;28;75691;-66
2021/05/21 04:46:13;;;;;;;;;;;19.00;50.00;;;;;;5053387;28;74911;-65
2021/05/21 04:48:38;;;;;;;;;;;19.00;50.20;;;;;;5053134;28;75212;-67
2021/05/21 04:51:04;;;;;;;;;;;19.00;50.40;;;;;;5053150;28;75156;-71
2021/05/21 04:53:30;;;;;;;;;;;18.90;50.50;;;;;;5051068;28;76992;-68
2021/05/21 04:55:55;;;;;;;;;;;18.80;50.90;;;;;;5051803;28;76325;-65
2021/05/21 04:58:21;;;;;;;;;;;18.70;50.90;;;;;;5050864;27;77110;-65
2021/05/21 05:00:47;;;;;;;;;;;18.70;51.30;;;;;;5051193;28;77479;-65
2021/05/21 05:03:16;;;;;;;;;;;18.70;51.20;;;;;;5053466;28;74665;-65
2021/05/21 05:05:42;;;;;;;;;;;18.70;51.10;;;;;;5051079;28;74622;-67
2021/05/21 05:08:09;;;;;;;;;;;18.60;51.00;;;;;;5052865;28;75283;-65
2021/05/21 05:10:35;;;;;;;;;;;18.60;51.30;;;;;;5050775;28;78012;-66
2021/05/21 05:13:00;;;;;;;;;;;18.70;50.90;;;;;;5053050;28;75159;-64
2021/05/21 05:15:27;;;;;;;;;;;18.80;51.00;;;;;;5053020;28;74991;-64
2021/05/21 05:17:52;;;;;;;;;;;18.90;50.90;;;;;;5051267;28;75186;-77
2021/05/21 05:20:23;;;;;;;;;;;18.90;50.70;;;;;;5051278;28;75515;-70
2021/05/21 05:22:51;;;;;;;;;;;18.80;50.80;;;;;;5052703;28;75031;-66
2021/05/21 05:25:16;;;;;;;;;;;18.90;50.80;;;;;;5052717;28;75275;-67
2021/05/21 05:27:42;;;;;;;;;;;18.90;50.90;;;;;;5051096;28;74432;-65
2021/05/21 05:30:08;;;;;;;;;;;18.90;51.00;;;;;;5050908;28;77039;-72
2021/05/21 05:32:34;;;;;;;;;;;18.90;50.90;;;;;;5044190;28;75154;-72
2021/05/21 05:34:59;;;;;;;;;;;19.00;50.90;;;;;;5047508;28;76543;-74
2021/05/21 05:37:25;;;;;;;;;;;19.00;50.90;;;;;;5050920;28;75254;-68
2021/05/21 05:39:51;;;;;;;;;;;19.00;50.70;;;;;;5051599;27;75048;-63
2021/05/21 05:42:16;;;;;;;;;;;18.90;51.00;;;;;;5050954;27;74618;-62
2021/05/21 05:44:42;;;;;;;;;;;18.90;51.10;;;;;;5051012;27;75796;-61
2021/05/21 05:47:07;;;;;;;;;;;18.90;51.30;;;;;;5036649;28;75417;-62
2021/05/21 05:49:33;;;;;;;;;;;19.00;51.20;;;;;;5032063;28;75157;-65
2021/05/21 05:51:59;;;;;;;;;;;19.10;51.30;;;;;;5069253;27;76423;-66
2021/05/21 05:54:26;;;;;;;;;;;19.10;51.10;;;;;;5032004;28;75197;-67
2021/05/21 05:56:52;;;;;;;;;;;19.20;50.80;;;;;;5064266;27;74568;-66
2021/05/21 05:59:18;;;;;;;;;;;19.30;50.60;;;;;;5030886;28;77722;-71
2021/05/21 06:01:44;;;;;;;;;;;19.40;50.60;;;;;;5035879;28;75959;-66
2021/05/21 06:04:09;;;;;;;;;;;19.40;50.50;;;;;;5049552;27;75782;-67
2021/05/21 06:06:35;;;;;;;;;;;19.40;50.50;;;;;;5050924;27;75627;-68
2021/05/21 06:09:01;;;;;;;;;;;19.50;50.50;;;;;;5050397;27;75219;-71
2021/05/21 06:11:27;;;;;;;;;;;19.40;50.60;;;;;;5045968;28;75138;-65
2021/05/21 06:13:53;;;;;;;;;;;19.40;50.80;;;;;;5053424;28;77873;-65
2021/05/21 06:16:18;;;;;;;;;;;19.50;50.80;;;;;;5055852;28;74429;-75
2021/05/21 06:18:46;;;;;;;;;;;19.60;50.90;;;;;;5055440;27;75029;-76
2021/05/21 06:21:12;;;;;;;;;;;19.50;51.20;;;;;;5055087;27;75946;-76
2021/05/21 06:23:38;;;;;;;;;;;19.50;51.40;;;;;;5054908;27;74651;-75
2021/05/21 06:28:39;;;;;;;;;;;19.40;51.60;;;;;;5051744;27;75195;-75
2021/05/21 06:31:05;;;;;;;;;;;19.40;51.40;;;;;;5052786;27;75205;-72
2021/05/21 06:33:30;;;;;;;;;;;19.40;51.50;;;;;;5053228;27;78118;-71
2021/05/21 06:35:56;;;;;;;;;;;19.40;51.20;;;;;;5054968;27;75197;-68
2021/05/21 06:38:22;;;;;;;;;;;19.50;51.50;;;;;;5054065;28;75160;-76
2021/05/21 06:40:47;;;;;;;;;;;19.50;51.50;;;;;;5053708;28;75691;-79
2021/05/21 06:43:13;;;;;;;;;;;19.60;51.30;;;;;;5060107;27;75699;-75
2021/05/21 06:45:39;;;;;;;;;;;19.60;51.40;;;;;;5054783;28;74965;-74
2021/05/21 06:48:05;;;;;;;;;;;19.70;51.30;;;;;;5053331;28;76710;-71
2021/05/21 06:50:31;;;;;;;;;;;19.80;51.70;;;;;;5052341;28;75592;-72
2021/05/21 06:52:56;;;;;;;;;;;19.80;51.10;;;;;;5052911;28;75216;-71
2021/05/21 06:55:22;;;;;;;;;;;19.80;51.60;;;;;;5054194;27;75731;-73
2021/05/21 06:57:48;;;;;;;;;;;19.80;51.30;;;;;;5054446;28;74530;-73
2021/05/21 07:00:14;;;;;;;;;;;19.90;51.10;;;;;;5051327;28;75546;-72
2021/05/21 07:02:40;;;;;;;;;;;19.90;50.80;;;;;;5053620;28;75257;-73
2021/05/21 07:05:06;;;;;;;;;;;19.90;51.20;;;;;;5050990;28;76070;-73
2021/05/21 07:07:32;;;;;;;;;;;19.90;50.80;;;;;;5049708;28;77615;-72
2021/05/21 07:09:59;;;;;;;;;;;20.00;50.80;;;;;;5050924;28;74832;-72
2021/05/21 07:12:25;;;;;;;;;;;20.00;50.90;;;;;;5053116;28;74646;-72
2021/05/21 07:14:51;;;;;;;;;;;20.10;50.60;;;;;;5054471;28;74587;-72
2021/05/21 07:17:16;;;;;;;;;;;20.20;50.60;;;;;;5052484;28;78087;-73
2021/05/21 07:19:42;;;;;;;;;;;20.30;50.50;;;;;;5054416;28;75589;-71
2021/05/21 07:22:08;;;;;;;;;;;20.30;50.30;;;;;;5051632;27;78542;-71
2021/05/21 07:24:34;;;;;;;;;;;20.40;50.20;;;;;;5052809;28;75151;-72
2021/05/21 07:27:00;;;;;;;;;;;20.40;50.20;;;;;;5050548;28;78864;-75
2021/05/21 07:29:26;;;;;;;;;;;20.40;50.00;;;;;;5052856;28;75612;-72
2021/05/21 07:31:51;;;;;;;;;;;20.40;49.90;;;;;;5051390;28;75982;-72
2021/05/21 07:34:17;;;;;;;;;;;20.50;50.30;;;;;;5048895;28;76963;-73
2021/05/21 07:36:43;;;;;;;;;;;20.50;50.10;;;;;;5052784;28;74903;-72
2021/05/21 07:39:09;;;;;;;;;;;20.50;49.70;;;;;;5053067;28;75737;-72
2021/05/21 07:41:34;;;;;;;;;;;20.60;49.70;;;;;;5050164;27;74962;-71
2021/05/21 07:44:00;;;;;;;;;;;20.70;49.50;;;;;;5050116;28;75683;-72
2021/05/21 07:46:26;;;;;;;;;;;20.80;49.30;;;;;;5036644;28;74860;-72
2021/05/21 07:48:52;;;;;;;;;;;20.80;49.30;;;;;;5051334;28;75254;-72
2021/05/21 07:51:19;;;;;;;;;;;20.90;48.60;;;;;;5051971;28;78617;-71
2021/05/21 07:53:45;;;;;;;;;;;21.00;48.50;;;;;;5053349;28;74505;-71
2021/05/21 07:56:10;;;;;;;;;;;21.20;48.40;;;;;;5053959;27;74551;-72
2021/05/21 07:58:36;;;;;;;;;;;21.30;48.10;;;;;;5051945;28;74657;-72
2021/05/21 08:01:02;;;;;;;;;;;21.40;47.50;;;;;;5051163;27;75245;-71
2021/05/21 08:03:28;;;;;;;;;;;21.40;47.80;;;;;;5050067;28;76390;-71
2021/05/21 08:05:54;;;;;;;;;;;21.50;47.70;;;;;;5049021;28;74795;-71
2021/05/21 08:08:22;;;;;;;;;;;21.50;47.40;;;;;;5050219;28;76665;-71
2021/05/21 08:10:52;;;;;;;;;;;21.60;46.90;;;;;;5051700;27;74693;-70
2021/05/21 08:13:18;;;;;;;;;;;21.50;46.40;;;;;;5051810;28;75566;-70
2021/05/21 08:15:44;;;;;;;;;;;21.50;46.60;;;;;;5050364;28;78381;-70
2021/05/21 08:18:09;;;;;;;;;;;21.50;46.90;;;;;;5050368;28;77906;-70
2021/05/21 08:20:35;;;;;;;;;;;21.60;47.20;;;;;;5051352;28;75264;-70
2021/05/21 08:23:01;;;;;;;;;;;21.80;47.10;;;;;;5049780;28;75882;-73
2021/05/21 08:25:26;;;;;;;;;;;22.00;47.10;;;;;;5051233;28;75195;-71
2021/05/21 08:27:53;;;;;;;;;;;22.10;46.00;;;;;;5049797;28;75457;-71
2021/05/21 08:30:19;;;;;;;;;;;22.20;45.50;;;;;;5051206;27;74604;-72
2021/05/21 08:32:48;;;;;;;;;;;22.30;45.90;;;;;;5050453;28;75749;-72
2021/05/21 08:35:14;;;;;;;;;;;22.40;45.60;;;;;;5047810;28;75820;-73
2021/05/21 08:37:39;;;;;;;;;;;22.50;44.80;;;;;;5049178;27;75654;-71
2021/05/21 08:40:06;;;;;;;;;;;22.60;44.40;;;;;;5048659;28;76114;-71
2021/05/21 08:42:36;;;;;;;;;;;22.60;43.50;;;;;;5049005;28;76533;-70
2021/05/21 08:45:02;;;;;;;;;;;22.60;44.10;;;;;;5050678;27;74791;-71
2021/05/21 08:47:31;;;;;;;;;;;22.70;43.60;;;;;;5048566;28;76997;-71
2021/05/21 08:50:00;;;;;;;;;;;22.70;43.40;;;;;;5044911;28;76686;-72
2021/05/21 08:52:26;;;;;;;;;;;22.70;42.90;;;;;;5048936;28;77036;-72
2021/05/21 08:54:52;;;;;;;;;;;22.70;43.30;;;;;;5047277;27;75804;-72
2021/05/21 08:57:19;;;;;;;;;;;22.90;43.30;;;;;;5050808;28;75094;-72
2021/05/21 08:59:45;;;;;;;;;;;23.00;43.20;;;;;;5051493;28;75191;-73
2021/05/21 09:02:15;;;;;;;;;;;23.10;41.30;;;;;;5047919;28;76356;-70
2021/05/21 09:04:56;;;;;;;;;;;23.10;41.80;;;;;;5049273;27;75002;-70
2021/05/21 09:07:32;;;;;;;;;;;23.20;41.70;;;;;;5046578;28;76455;-71
2021/05/21 09:10:04;;;;;;;;;;;23.30;40.90;;;;;;5047307;28;77479;-70
2021/05/21 09:12:40;;;;;;;;;;;23.40;41.60;;;;;;5050540;27;75069;-73
2021/05/21 09:15:10;;;;;;;;;;;23.60;41.60;;;;;;5050793;28;75204;-73
2021/05/21 09:17:36;;;;;;;;;;;23.70;41.40;;;;;;5048301;28;74993;-72
2021/05/21 09:20:03;;;;;;;;;;;23.80;41.30;;;;;;5050451;28;75266;-72
2021/05/21 09:22:29;;;;;;;;;;;23.90;41.10;;;;;;5050626;27;75171;-73
2021/05/21 09:24:55;;;;;;;;;;;24.00;40.90;;;;;;5047043;28;77468;-72
2021/05/21 09:27:21;;;;;;;;;;;24.20;41.10;;;;;;5050191;28;75641;-71
2021/05/21 09:29:50;;;;;;;;;;;24.20;40.60;;;;;;5050684;28;75940;-72
2021/05/21 09:32:21;;;;;;;;;;;24.30;40.30;;;;;;5050497;28;75588;-70
2021/05/21 09:35:08;;;;;;;;;;;24.40;40.60;;;;;;5049286;28;77863;-71
2021/05/21 09:37:35;;;;;;;;;;;24.50;40.30;;;;;;5049036;28;75569;-73
2021/05/21 09:40:14;;;;;;;;;;;24.60;40.50;;;;;;5050051;28;75606;-69
2021/05/21 09:42:43;;;;;;;;;;;24.70;40.20;;;;;;5051519;27;75193;-71
2021/05/21 09:45:16;;;;;;;;;;;24.90;40.80;;;;;;5051885;27;74868;-71
2021/05/21 09:47:48;;;;;;;;;;;24.90;40.10;;;;;;5055085;28;74957;-70
2021/05/21 09:50:14;;;;;;;;;;;25.00;39.50;;;;;;5055170;27;74884;-69
2021/05/21 09:52:43;;;;;;;;;;;25.10;39.90;;;;;;5054808;28;74600;-69
2021/05/21 09:55:09;;;;;;;;;;;25.20;40.20;;;;;;5049520;28;74546;-70
2021/05/21 09:57:35;;;;;;;;;;;25.30;39.70;;;;;;5055368;27;74630;-70
2021/05/21 10:00:03;;;;;;;;;;;25.40;39.40;;;;;;5052982;28;77404;-71
2021/05/21 10:02:30;;;;;;;;;;;25.50;39.00;;;;;;5055120;27;75817;-70
2021/05/21 10:04:56;;;;;;;;;;;25.60;39.10;;;;;;5054855;28;75855;-70
2021/05/21 10:07:23;;;;;;;;;;;25.80;39.00;;;;;;5052619;27;75766;-71
2021/05/21 10:09:49;;;;;;;;;;;25.80;38.70;;;;;;5054361;27;74702;-70
2021/05/21 10:12:14;;;;;;;;;;;25.90;36.10;;;;;;5055168;27;75669;-68
2021/05/21 10:14:41;;;;;;;;;;;26.00;35.80;;;;;;5053212;28;77508;-71
2021/05/21 10:17:09;;;;;;;;;;;26.20;35.70;;;;;;5053454;28;76372;-68
2021/05/21 10:19:36;;;;;;;;;;;26.40;35.20;;;;;;5053644;28;77290;-69
2021/05/21 10:22:03;;;;;;;;;;;26.60;31.50;;;;;;5054213;27;75307;-69
2021/05/21 10:24:34;;;;;;;;;;;26.70;33.00;;;;;;5054508;27;75855;-68
2021/05/21 10:27:01;;;;;;;;;;;26.90;32.80;;;;;;5054929;27;75389;-68
2021/05/21 10:29:27;;;;;;;;;;;27.10;33.30;;;;;;5043732;27;76401;-68
2021/05/21 10:32:02;;;;;;;;;;;27.20;31.90;;;;;;5038687;28;78593;-68
2021/05/21 10:34:28;;;;;;;;;;;27.40;32.30;;;;;;5035343;28;76704;-70
2021/05/21 10:37:13;;;;;;;;;;;27.50;32.00;;;;;;5052776;28;76406;-71
2021/05/21 10:39:55;;;;;;;;;;;27.70;31.00;;;;;;5046938;27;77141;-70
2021/05/21 10:42:21;;;;;;;;;;;28.00;30.90;;;;;;5049987;28;75752;-71
2021/05/21 10:44:49;;;;;;;;;;;28.30;31.20;;;;;;5052471;27;75509;-71
2021/05/21 10:47:24;;;;;;;;;;;28.40;30.00;;;;;;5051369;28;77730;-71
2021/05/21 10:49:49;;;;;;;;;;;28.50;30.30;;;;;;5054823;28;75523;-69
2021/05/21 10:52:15;;;;;;;;;;;28.60;30.00;;;;;;5054605;28;75185;-70
2021/05/21 10:54:44;;;;;;;;;;;28.70;29.40;;;;;;5052055;27;75549;-70
2021/05/21 10:57:11;;;;;;;;;;;28.90;30.00;;;;;;5048830;27;77939;-70
2021/05/21 10:59:39;;;;;;;;;;;29.20;29.50;;;;;;5055057;27;74412;-69
2021/05/21 11:02:05;;;;;;;;;;;29.40;29.50;;;;;;5054559;27;75367;-69
2021/05/21 11:04:31;;;;;;;;;;;29.90;29.00;;;;;;5052992;28;75552;-70
2021/05/21 11:06:57;;;;;;;;;;;30.20;28.90;;;;;;5054148;27;75697;-70
2021/05/21 11:09:24;;;;;;;;;;;30.60;28.00;;;;;;5055125;27;75169;-70
2021/05/21 11:11:51;;;;;;;;;;;31.10;28.20;;;;;;5052028;28;79062;-70
2021/05/21 11:14:25;;;;;;;;;;;31.50;26.80;;;;;;5050613;28;77743;-69
2021/05/21 11:16:52;;;;;;;;;;;31.70;23.90;;;;;;5051837;27;75239;-71
2021/05/21 11:19:22;;;;;;;;;;;31.90;24.90;;;;;;5052379;28;77618;-70
2021/05/21 11:21:51;;;;;;;;;;;32.40;25.20;;;;;;5052900;28;77965;-70
2021/05/21 11:24:33;;;;;;;;;;;33.10;25.30;;;;;;5052823;28;75485;-71
2021/05/21 11:27:00;;;;;;;;;;;34.00;23.90;;;;;;5052233;28;77430;-70
2021/05/21 11:29:26;;;;;;;;;;;34.70;23.70;;;;;;5053913;27;75042;-69
2021/05/21 11:31:51;;;;;;;;;;;35.30;22.30;;;;;;5052877;28;75772;-70
2021/05/21 11:34:17;;;;;;;;;;;35.70;21.90;;;;;;5052719;28;74653;-70
2021/05/21 11:36:43;;;;;;;;;;;36.80;21.90;;;;;;5053949;27;75167;-71
2021/05/21 11:39:09;;;;;;;;;;;37.90;20.70;;;;;;5052231;28;75641;-71
2021/05/21 11:41:41;;;;;;;;;;;38.90;20.00;;;;;;5054285;28;75180;-70
2021/05/21 11:44:10;;;;;;;;;;;39.50;19.00;;;;;;5051917;28;75392;-71
2021/05/21 11:46:38;;;;;;;;;;;40.20;17.50;;;;;;5047125;27;75423;-71
2021/05/21 11:49:07;;;;;;;;;;;40.50;16.90;;;;;;5053363;27;75045;-70
2021/05/21 11:51:33;;;;;;;;;;;40.40;16.50;;;;;;5049966;28;77974;-71
2021/05/21 11:54:02;;;;;;;;;;;40.90;16.50;;;;;;5052376;28;75419;-72
2021/05/21 11:56:31;;;;;;;;;;;41.40;16.60;;;;;;5052126;28;74573;-71
2021/05/21 11:59:00;;;;;;;;;;;42.20;16.40;;;;;;5054032;27;75711;-69
2021/05/21 12:01:26;;;;;;;;;;;43.70;15.70;;;;;;5035679;27;77064;-71
2021/05/21 12:03:52;;;;;;;;;;;44.60;15.60;;;;;;5050381;28;74929;-71
2021/05/21 12:06:17;;;;;;;;;;;45.50;14.50;;;;;;5047626;27;76984;-72
2021/05/21 12:08:45;;;;;;;;;;;45.90;14.60;;;;;;5036133;28;75099;-73
2021/05/21 12:11:10;;;;;;;;;;;46.20;14.90;;;;;;5048227;27;75381;-72
2021/05/21 12:13:36;;;;;;;;;;;46.40;12.90;;;;;;5047404;28;75442;-72
2021/05/21 12:16:09;;;;;;;;;;;45.80;13.70;;;;;;5050127;28;75116;-72
2021/05/21 12:18:35;;;;;;;;;;;45.60;14.40;;;;;;5052745;28;76634;-71
2021/05/21 12:21:01;;;;;;;;;;;45.90;13.70;;;;;;5052899;27;75179;-72
2021/05/21 12:23:31;;;;;;;;;;;46.60;14.60;;;;;;5053517;27;75239;-73
2021/05/21 12:25:57;;;;;;;;;;;47.40;13.30;;;;;;5053467;28;75059;-72
2021/05/21 12:28:22;;;;;;;;;;;48.00;14.10;;;;;;5053354;28;75677;-71
2021/05/21 12:30:48;;;;;;;;;;;48.80;13.90;;;;;;5051024;27;75593;-73
2021/05/21 12:33:14;;;;;;;;;;;49.20;12.60;;;;;;5040012;28;76686;-72
2021/05/21 12:35:41;;;;;;;;;;;49.20;13.30;;;;;;5034576;28;75275;-71
2021/05/21 12:38:08;;;;;;;;;;;49.50;13.70;;;;;;5053387;27;74973;-73
2021/05/21 12:40:35;;;;;;;;;;;50.00;13.40;;;;;;5048914;28;74739;-73
2021/05/21 12:43:05;;;;;;;;;;;49.90;12.90;;;;;;5051916;28;75761;-72
2021/05/21 12:45:35;;;;;;;;;;;50.20;12.70;;;;;;5051880;28;75501;-73
2021/05/21 12:48:00;;;;;;;;;;;49.40;13.00;;;;;;5069585;27;74751;-72
2021/05/21 12:50:31;;;;;;;;;;;49.40;12.90;;;;;;5072334;27;74744;-78
2021/05/21 12:52:56;;;;;;;;;;;49.10;13.20;;;;;;5073994;27;75255;-76
2021/05/21 12:55:23;;;;;;;;;;;48.80;12.90;;;;;;5073416;27;74916;-71
2021/05/21 12:57:49;;;;;;;;;;;48.30;13.70;;;;;;5073427;27;76924;-73
2021/05/21 13:00:18;;;;;;;;;;;48.20;12.80;;;;;;5073437;27;76318;-72
2021/05/21 13:02:49;;;;;;;;;;;47.70;13.00;;;;;;5071641;27;76716;-68
2021/05/21 13:05:14;;;;;;;;;;;45.60;14.00;;;;;;5073595;27;75163;-73
2021/05/21 13:07:41;;;;;;;;;;;43.50;14.80;;;;;;5071336;27;77211;-73
2021/05/21 13:10:11;;;;;;;;;;;43.60;14.60;;;;;;5074055;27;75164;-74
2021/05/21 13:12:38;;;;;;;;;;;45.30;14.20;;;;;;5071492;27;77170;-72
2021/05/21 13:15:11;;;;;;;;;;;47.00;13.90;;;;;;5071687;27;75013;-71
2021/05/21 13:17:41;;;;;;;;;;;48.00;13.30;;;;;;5073108;27;76681;-70
2021/05/21 13:20:07;;;;;;;;;;;48.20;13.30;;;;;;5052838;27;75392;-72
2021/05/21 13:22:34;;;;;;;;;;;47.10;13.50;;;;;;5035866;28;77218;-74
2021/05/21 13:25:03;;;;;;;;;;;45.00;14.60;;;;;;5031136;28;75942;-72
2021/05/21 13:27:30;;;;;;;;;;;42.70;15.80;;;;;;5032765;28;75217;-73
2021/05/21 13:29:55;;;;;;;;;;;42.10;16.00;;;;;;5032642;28;74597;-73
2021/05/21 13:32:23;;;;;;;;;;;44.60;14.50;;;;;;5031168;28;75580;-73
2021/05/21 13:34:49;;;;;;;;;;;47.10;14.00;;;;;;5033351;28;74462;-65
2021/05/21 13:37:15;;;;;;;;;;;48.40;13.10;;;;;;5034765;27;75310;-65
2021/05/21 13:39:40;;;;;;;;;;;47.90;13.60;;;;;;5045847;28;75245;-69
2021/05/21 13:42:06;;;;;;;;;;;48.50;13.60;;;;;;5041100;28;74503;-63
2021/05/21 13:44:32;;;;;;;;;;;49.00;13.30;;;;;;5031057;28;75855;-62
2021/05/21 13:46:58;;;;;;;;;;;49.50;13.40;;;;;;5031704;28;76369;-61
2021/05/21 13:49:23;;;;;;;;;;;50.20;13.20;;;;;;5032311;28;74976;-63
2021/05/21 13:51:53;;;;;;;;;;;50.10;12.90;;;;;;5030956;28;75855;-63
2021/05/21 13:54:18;;;;;;;;;;;49.50;13.10;;;;;;5030643;28;75278;-63
2021/05/21 13:56:44;;;;;;;;;;;49.20;13.40;;;;;;5030680;28;76079;-62
2021/05/21 13:59:10;;;;;;;;;;;49.00;12.90;;;;;;5030377;28;75325;-61
2021/05/21 14:01:35;;;;;;;;;;;47.10;13.70;;;;;;5032763;28;74714;-64
2021/05/21 14:04:01;;;;;;;;;;;47.00;13.50;;;;;;5032812;28;75374;-62
2021/05/21 14:06:27;;;;;;;;;;;47.60;13.30;;;;;;5030412;28;74889;-65
2021/05/21 14:08:53;;;;;;;;;;;48.40;13.30;;;;;;5030808;28;75360;-65
2021/05/21 14:11:18;;;;;;;;;;;48.40;13.40;;;;;;5030473;28;77843;-63
2021/05/21 14:13:44;;;;;;;;;;;48.00;13.70;;;;;;5030429;28;76860;-65
2021/05/21 14:16:10;;;;;;;;;;;46.80;13.70;;;;;;5032617;28;75042;-66